createdAt,value
2019-03-15T00:00:51.611Z,11.60
2019-03-15T00:03:24.423Z,11.55
2019-03-15T00:05:54.003Z,15.00
2019-03-15T00:08:26.361Z,9.68
2019-03-15T00:10:55.686Z,21.30
2019-03-15T00:13:25.010Z,8.85
2019-03-15T00:15:59.425Z,12.15
2019-03-15T00:18:30.414Z,12.98
2019-03-15T00:21:05.225Z,13.05
2019-03-15T00:23:34.470Z,15.32
2019-03-15T00:26:04.894Z,10.00
2019-03-15T00:28:40.280Z,11.48
2019-03-15T00:31:13.839Z,8.80
2019-03-15T00:33:46.027Z,12.87
2019-03-15T00:36:18.398Z,12.83
2019-03-15T00:38:49.300Z,13.03
2019-03-15T00:41:18.635Z,15.25
2019-03-15T00:43:49.864Z,12.75
2019-03-15T00:46:18.869Z,14.30
2019-03-15T00:48:48.135Z,11.50
2019-03-15T00:51:19.807Z,12.47
2019-03-15T00:53:54.801Z,6.65
2019-03-15T00:56:36.036Z,15.72
2019-03-15T00:59:10.438Z,12.75
2019-03-15T01:01:46.172Z,8.33
2019-03-15T01:04:17.773Z,12.90
2019-03-15T01:06:47.022Z,9.73
2019-03-15T01:09:19.499Z,9.75
2019-03-15T01:11:51.464Z,12.85
2019-03-15T01:14:32.154Z,22.17
2019-03-15T01:17:05.770Z,19.77
2019-03-15T01:19:36.596Z,14.83
2019-03-15T01:22:06.188Z,14.80
2019-03-15T01:24:41.439Z,18.98
2019-03-15T01:27:12.663Z,20.85
2019-03-15T01:29:41.998Z,22.85
2019-03-15T01:32:14.490Z,14.68
2019-03-15T01:34:45.783Z,29.87
2019-03-15T01:37:15.190Z,11.18
2019-03-15T01:39:49.314Z,13.95
2019-03-15T01:42:19.636Z,13.13
2019-03-15T01:44:55.439Z,16.95
2019-03-15T01:47:26.726Z,16.45
2019-03-15T01:50:08.051Z,20.90
2019-03-15T01:52:43.104Z,21.60
2019-03-15T01:55:21.962Z,26.23
2019-03-15T01:57:55.269Z,28.70
2019-03-15T02:00:27.457Z,40.73
2019-03-15T02:03:13.773Z,28.02
2019-03-15T02:05:45.114Z,20.60
2019-03-15T02:08:16.634Z,15.05
2019-03-15T02:10:53.022Z,24.82
2019-03-15T02:13:37.120Z,24.15
2019-03-15T02:16:09.927Z,19.20
2019-03-15T02:18:41.455Z,23.10
2019-03-15T02:21:12.755Z,23.02
2019-03-15T02:23:44.870Z,10.95
2019-03-15T02:26:16.800Z,18.98
2019-03-15T02:29:00.138Z,18.80
2019-03-15T02:31:29.511Z,22.13
2019-03-15T02:34:00.141Z,16.37
2019-03-15T02:36:29.940Z,18.97
2019-03-15T02:39:09.099Z,25.20
2019-03-15T02:41:39.455Z,26.33
2019-03-15T02:44:11.887Z,17.30
2019-03-15T02:46:41.746Z,22.23
2019-03-15T02:49:11.068Z,14.77
2019-03-15T02:51:50.037Z,24.47
2019-03-15T02:54:19.550Z,22.40
2019-03-15T02:56:49.127Z,16.55
2019-03-15T07:17:57.781Z,30.70
2019-03-15T07:28:00.958Z,24.10
2019-03-15T07:30:49.762Z,22.30
2019-03-15T07:33:29.317Z,32.13
2019-03-15T07:36:26.679Z,31.95
2019-03-15T07:40:09.094Z,29.77
2019-03-15T07:42:42.493Z,23.32
2019-03-15T07:45:44.038Z,30.97
2019-03-15T07:48:37.954Z,29.40
2019-03-15T07:51:14.730Z,32.25
2019-03-15T07:54:17.965Z,38.25
2019-03-15T08:03:59.429Z,31.42
2019-03-15T08:07:10.814Z,33.40
2019-03-15T08:10:13.830Z,23.38
2019-03-15T08:15:56.392Z,37.88
2019-03-15T08:18:28.487Z,23.18
2019-03-15T08:21:02.705Z,41.83
2019-03-15T08:23:35.094Z,31.40
2019-03-15T08:26:22.629Z,33.92
2019-03-15T08:29:20.158Z,38.10
2019-03-15T08:31:51.243Z,28.90
2019-03-15T08:34:21.137Z,31.10
2019-03-15T08:36:53.289Z,32.05
2019-03-15T08:40:15.093Z,30.88
2019-03-15T08:43:27.567Z,27.77
2019-03-15T08:46:12.115Z,36.95
2019-03-15T08:49:06.122Z,50.48
2019-03-15T08:52:03.691Z,52.23
2019-03-15T08:55:04.744Z,43.30
2019-03-15T09:15:58.196Z,33.65
2019-03-15T09:41:51.734Z,45.43
2019-03-15T09:54:35.032Z,36.15
2019-03-15T09:57:38.726Z,37.30
2019-03-15T10:00:26.140Z,38.17
2019-03-15T10:07:07.092Z,26.23
2019-03-15T10:09:58.256Z,29.93
2019-03-15T17:50:05.527Z,25.02
2019-03-15T18:15:05.327Z,21.82
2019-03-15T18:18:03.786Z,24.15
2019-03-15T18:20:40.150Z,28.67
2019-03-15T18:23:18.838Z,20.45
2019-03-15T18:26:06.294Z,26.85
2019-03-15T18:28:38.517Z,29.05
2019-03-15T18:31:12.339Z,26.10
2019-03-15T18:33:45.606Z,25.23
2019-03-15T18:36:38.204Z,21.65
2019-03-15T19:02:26.898Z,39.53
2019-03-15T19:05:04.312Z,33.48
2019-03-15T19:07:35.252Z,36.40
2019-03-15T19:10:08.772Z,25.88
2019-03-15T19:12:39.217Z,25.60
2019-03-15T19:15:16.020Z,26.80
2019-03-15T19:17:54.548Z,22.13
2019-03-15T19:20:26.871Z,33.58
2019-03-15T19:23:01.892Z,31.30
2019-03-15T19:25:33.003Z,46.70
2019-03-15T19:28:03.048Z,29.18
2019-03-15T19:31:15.472Z,35.17
2019-03-15T19:34:25.341Z,21.73
2019-03-15T19:37:11.759Z,27.55
2019-03-15T19:40:00.612Z,26.82
2019-03-15T19:43:13.809Z,33.45
2019-03-15T19:45:55.100Z,24.67
2019-03-15T19:48:37.780Z,28.12
2019-03-15T19:51:34.044Z,31.10
2019-03-15T19:54:05.529Z,28.10
2019-03-15T19:56:59.558Z,26.97
2019-03-15T19:59:44.445Z,33.70
2019-03-15T20:02:17.931Z,27.87
2019-03-15T20:04:56.883Z,27.52
2019-03-15T20:07:36.200Z,33.73
2019-03-15T20:14:31.661Z,32.65
2019-03-15T20:20:04.298Z,33.88
2019-03-15T20:25:19.415Z,29.30
2019-03-15T20:27:53.947Z,31.85
2019-03-15T20:30:26.949Z,33.73
2019-03-15T20:33:32.266Z,32.05
2019-03-15T20:36:54.031Z,32.15
2019-03-15T20:42:19.445Z,35.17
2019-03-15T20:45:27.954Z,24.00
2019-03-15T20:48:18.394Z,33.55
2019-03-15T20:58:31.690Z,26.30
2019-03-15T21:01:35.789Z,35.28
2019-03-15T21:08:54.995Z,36.80
2019-03-15T21:11:29.645Z,29.10
2019-03-15T21:18:30.787Z,33.35
2019-03-15T21:37:30.650Z,29.67
2019-03-15T21:44:33.973Z,27.85
2019-03-15T21:51:47.872Z,24.35
2019-03-15T22:19:39.891Z,25.00
2019-03-15T22:22:29.696Z,27.48
2019-03-15T22:25:43.667Z,36.25
2019-03-15T22:28:43.962Z,25.43
2019-03-15T22:31:34.247Z,8.43
2019-03-15T22:34:14.245Z,4.95
2019-03-15T22:36:49.928Z,13.10
2019-03-15T22:39:32.556Z,7.35
2019-03-15T22:42:07.471Z,7.75
2019-03-15T22:44:45.200Z,7.70
2019-03-15T22:47:30.445Z,6.58
2019-03-15T22:50:01.807Z,10.95
2019-03-15T22:52:50.522Z,9.43
2019-03-15T22:55:45.714Z,8.13
2019-03-15T22:58:27.349Z,6.03
2019-03-15T23:01:30.487Z,7.05
2019-03-15T23:04:26.477Z,9.35
2019-03-15T23:06:58.853Z,10.90
2019-03-15T23:10:05.557Z,12.03
2019-03-15T23:16:30.473Z,10.53
2019-03-15T23:19:20.221Z,10.20
2019-03-15T23:22:18.456Z,7.95
2019-03-15T23:25:03.715Z,8.60
2019-03-15T23:27:40.385Z,13.03
2019-03-15T23:30:37.458Z,7.72
2019-03-15T23:37:31.240Z,10.75
2019-03-15T23:40:55.431Z,9.43
2019-03-15T23:43:42.296Z,6.40
2019-03-15T23:46:59.982Z,8.68
2019-03-15T23:50:14.110Z,7.58
2019-03-15T23:53:10.463Z,13.60
